sensor_id;sensor_type;location;lat;lon;timestamp;pressure;altitude;pressure_sealevel;temperature;humidity
20003;BME280;10162;41.600;23.806;2023-03-04T00:44:32;95180.94;;;5.40;100.00
20003;BME280;10162;41.600;23.806;2023-03-04T00:55:55;95155.63;;;5.59;100.00
20003;BME280;10162;41.600;23.806;2023-03-04T01:27:25;95165.50;;;5.07;100.00
20003;BME280;10162;41.600;23.806;2023-03-04T02:21:50;95123.72;;;5.42;100.00
20003;BME280;10162;41.600;23.806;2023-03-04T02:25:15;95133.78;;;5.45;100.00
20003;BME280;10162;41.600;23.806;2023-03-04T02:33:08;95117.56;;;5.27;100.00
20003;BME280;10162;41.600;23.806;2023-03-04T02:35:35;95138.94;;;5.53;100.00
20003;BME280;10162;41.600;23.806;2023-03-04T02:38:01;95130.84;;;5.56;100.00
20003;BME280;10162;41.600;23.806;2023-03-04T02:40:30;95128.25;;;5.48;100.00
20003;BME280;10162;41.600;23.806;2023-03-04T02:42:59;95133.28;;;5.58;100.00
20003;BME280;10162;41.600;23.806;2023-03-04T02:45:46;95131.34;;;5.52;100.00
20003;BME280;10162;41.600;23.806;2023-03-04T02:48:18;95110.09;;;5.32;100.00
20003;BME280;10162;41.600;23.806;2023-03-04T02:50:54;95122.41;;;5.38;100.00
20003;BME280;10162;41.600;23.806;2023-03-04T02:53:26;95133.91;;;5.35;100.00
20003;BME280;10162;41.600;23.806;2023-03-04T02:55:56;95105.59;;;5.18;100.00
20003;BME280;10162;41.600;23.806;2023-03-04T03:06:07;95101.03;;;5.52;100.00
20003;BME280;10162;41.600;23.806;2023-03-04T03:12:23;95088.06;;;5.52;100.00
20003;BME280;10162;41.600;23.806;2023-03-04T03:14:49;95108.44;;;5.71;100.00
20003;BME280;10162;41.600;23.806;2023-03-04T03:17:18;95105.72;;;5.57;100.00
20003;BME280;10162;41.600;23.806;2023-03-04T03:23:40;95099.44;;;5.35;100.00
20003;BME280;10162;41.600;23.806;2023-03-04T03:26:06;95119.31;;;5.67;100.00
20003;BME280;10162;41.600;23.806;2023-03-04T03:32:06;95126.28;;;5.66;100.00
20003;BME280;10162;41.600;23.806;2023-03-04T03:34:32;95098.25;;;5.54;100.00
20003;BME280;10162;41.600;23.806;2023-03-04T03:36:58;95113.47;;;5.65;100.00
20003;BME280;10162;41.600;23.806;2023-03-04T03:42:36;95133.56;;;5.79;100.00
20003;BME280;10162;41.600;23.806;2023-03-04T03:45:02;95127.88;;;5.75;100.00
20003;BME280;10162;41.600;23.806;2023-03-04T03:47:27;95143.78;;;5.80;100.00
20003;BME280;10162;41.600;23.806;2023-03-04T03:49:54;95145.25;;;5.91;100.00
20003;BME280;10162;41.600;23.806;2023-03-04T03:52:21;95148.31;;;5.95;100.00
20003;BME280;10162;41.600;23.806;2023-03-04T03:54:46;95115.75;;;5.68;100.00
20003;BME280;10162;41.600;23.806;2023-03-04T03:57:15;95130.00;;;5.80;100.00
20003;BME280;10162;41.600;23.806;2023-03-04T04:00:11;95160.63;;;6.01;100.00
20003;BME280;10162;41.600;23.806;2023-03-04T04:02:40;95152.53;;;5.79;100.00
20003;BME280;10162;41.600;23.806;2023-03-04T04:05:06;95167.59;;;5.84;100.00
20003;BME280;10162;41.600;23.806;2023-03-04T04:07:33;95154.00;;;5.90;100.00
20003;BME280;10162;41.600;23.806;2023-03-04T04:13:53;95138.25;;;5.75;100.00
20003;BME280;10162;41.600;23.806;2023-03-04T04:16:19;95139.41;;;5.73;100.00
20003;BME280;10162;41.600;23.806;2023-03-04T04:21:50;95124.16;;;5.70;100.00
20003;BME280;10162;41.600;23.806;2023-03-04T04:24:16;95160.81;;;5.91;100.00
20003;BME280;10162;41.600;23.806;2023-03-04T04:26:42;95161.13;;;5.80;100.00
20003;BME280;10162;41.600;23.806;2023-03-04T04:32:16;95146.53;;;5.79;100.00
20003;BME280;10162;41.600;23.806;2023-03-04T04:34:42;95131.31;;;5.68;100.00
20003;BME280;10162;41.600;23.806;2023-03-04T04:37:18;95140.41;;;5.56;100.00
20003;BME280;10162;41.600;23.806;2023-03-04T04:44:13;95154.50;;;5.61;100.00
20003;BME280;10162;41.600;23.806;2023-03-04T04:46:40;95150.59;;;5.73;100.00
20003;BME280;10162;41.600;23.806;2023-03-04T04:49:12;95125.16;;;5.53;100.00
20003;BME280;10162;41.600;23.806;2023-03-04T04:51:38;95138.13;;;5.53;100.00
20003;BME280;10162;41.600;23.806;2023-03-04T04:54:05;95145.09;;;5.60;100.00
20003;BME280;10162;41.600;23.806;2023-03-04T04:56:31;95153.34;;;5.48;100.00
20003;BME280;10162;41.600;23.806;2023-03-04T05:02:01;95144.44;;;5.66;100.00
20003;BME280;10162;41.600;23.806;2023-03-04T05:04:30;95164.69;;;5.79;100.00
20003;BME280;10162;41.600;23.806;2023-03-04T05:06:56;95142.00;;;5.49;100.00
20003;BME280;10162;41.600;23.806;2023-03-04T05:09:54;95172.31;;;5.64;100.00
20003;BME280;10162;41.600;23.806;2023-03-04T05:12:30;95155.31;;;5.54;100.00
20003;BME280;10162;41.600;23.806;2023-03-04T05:15:00;95152.88;;;5.60;100.00
20003;BME280;10162;41.600;23.806;2023-03-04T05:17:29;95160.47;;;5.54;100.00
20003;BME280;10162;41.600;23.806;2023-03-04T05:23:48;95162.59;;;5.66;100.00
20003;BME280;10162;41.600;23.806;2023-03-04T05:26:17;95149.63;;;5.42;100.00
20003;BME280;10162;41.600;23.806;2023-03-04T05:32:23;95148.66;;;5.43;100.00
20003;BME280;10162;41.600;23.806;2023-03-04T05:34:52;95147.84;;;5.43;100.00
20003;BME280;10162;41.600;23.806;2023-03-04T05:37:18;95149.31;;;5.45;100.00
20003;BME280;10162;41.600;23.806;2023-03-04T05:42:51;95140.88;;;5.67;100.00
20003;BME280;10162;41.600;23.806;2023-03-04T05:45:17;95157.88;;;5.86;100.00
20003;BME280;10162;41.600;23.806;2023-03-04T05:47:44;95149.13;;;5.71;100.00
20003;BME280;10162;41.600;23.806;2023-03-04T05:50:12;95137.94;;;5.78;100.00
20003;BME280;10162;41.600;23.806;2023-03-04T05:52:38;95146.06;;;5.67;100.00
20003;BME280;10162;41.600;23.806;2023-03-04T05:55:04;95147.03;;;5.74;100.00
20003;BME280;10162;41.600;23.806;2023-03-04T05:57:30;95142.97;;;5.80;100.00
20003;BME280;10162;41.600;23.806;2023-03-04T06:00:26;95164.34;;;6.06;100.00
20003;BME280;10162;41.600;23.806;2023-03-04T06:02:53;95138.91;;;5.94;100.00
20003;BME280;10162;41.600;23.806;2023-03-04T06:05:19;95150.72;;;6.04;100.00
20003;BME280;10162;41.600;23.806;2023-03-04T06:07:45;95160.13;;;6.13;100.00
20003;BME280;10162;41.600;23.806;2023-03-04T06:13:51;95159.59;;;6.26;100.00
20003;BME280;10162;41.600;23.806;2023-03-04T06:16:17;95139.00;;;6.16;100.00
20003;BME280;10162;41.600;23.806;2023-03-04T06:18:44;95131.13;;;5.94;100.00
20003;BME280;10162;41.600;23.806;2023-03-04T06:21:09;95145.16;;;6.23;100.00
20003;BME280;10162;41.600;23.806;2023-03-04T06:23:35;95146.63;;;6.18;100.00
20003;BME280;10162;41.600;23.806;2023-03-04T06:26:02;95151.97;;;6.16;100.00
20003;BME280;10162;41.600;23.806;2023-03-04T06:31:39;95165.69;;;6.41;100.00
20003;BME280;10162;41.600;23.806;2023-03-04T06:34:08;95173.81;;;6.38;100.00
20003;BME280;10162;41.600;23.806;2023-03-04T06:36:35;95147.25;;;6.28;100.00
20003;BME280;10162;41.600;23.806;2023-03-04T06:42:12;95149.84;;;6.28;100.00
20003;BME280;10162;41.600;23.806;2023-03-04T06:44:38;95165.84;;;6.48;100.00
20003;BME280;10162;41.600;23.806;2023-03-04T06:47:04;95163.81;;;6.66;100.00
20003;BME280;10162;41.600;23.806;2023-03-04T06:49:41;95164.25;;;6.78;100.00
20003;BME280;10162;41.600;23.806;2023-03-04T06:52:07;95162.78;;;6.75;100.00
20003;BME280;10162;41.600;23.806;2023-03-04T06:54:35;95162.34;;;6.72;100.00
20003;BME280;10162;41.600;23.806;2023-03-04T06:57:02;95150.78;;;6.74;100.00
20003;BME280;10162;41.600;23.806;2023-03-04T07:02:42;95183.03;;;6.88;100.00
20003;BME280;10162;41.600;23.806;2023-03-04T07:05:09;95177.47;;;6.91;100.00
20003;BME280;10162;41.600;23.806;2023-03-04T07:07:35;95162.53;;;6.93;100.00
20003;BME280;10162;41.600;23.806;2023-03-04T07:10:13;95169.84;;;6.89;100.00
20003;BME280;10162;41.600;23.806;2023-03-04T07:12:39;95157.59;;;6.75;100.00
20003;BME280;10162;41.600;23.806;2023-03-04T07:15:05;95166.50;;;6.81;100.00
20003;BME280;10162;41.600;23.806;2023-03-04T07:17:32;95184.31;;;6.92;100.00
20003;BME280;10162;41.600;23.806;2023-03-04T07:23:53;95170.69;;;7.13;100.00
20003;BME280;10162;41.600;23.806;2023-03-04T07:26:19;95180.63;;;7.09;100.00
20003;BME280;10162;41.600;23.806;2023-03-04T07:28:45;95174.59;;;7.39;100.00
20003;BME280;10162;41.600;23.806;2023-03-04T07:31:26;95178.59;;;7.19;100.00
20003;BME280;10162;41.600;23.806;2023-03-04T07:33:57;95162.72;;;7.37;100.00
20003;BME280;10162;41.600;23.806;2023-03-04T07:36:26;95190.94;;;7.48;100.00
20003;BME280;10162;41.600;23.806;2023-03-04T07:38:55;95189.13;;;7.48;100.00
20003;BME280;10162;41.600;23.806;2023-03-04T07:41:23;95163.91;;;7.34;100.00
20003;BME280;10162;41.600;23.806;2023-03-04T07:43:50;95198.13;;;7.46;100.00
20003;BME280;10162;41.600;23.806;2023-03-04T07:46:18;95182.44;;;7.54;100.00
20003;BME280;10162;41.600;23.806;2023-03-04T07:48:45;95176.25;;;7.55;100.00
20003;BME280;10162;41.600;23.806;2023-03-04T07:51:16;95189.19;;;7.40;100.00
20003;BME280;10162;41.600;23.806;2023-03-04T07:53:45;95146.44;;;7.20;100.00
20003;BME280;10162;41.600;23.806;2023-03-04T07:56:17;95186.19;;;7.52;100.00
20003;BME280;10162;41.600;23.806;2023-03-04T07:58:44;95168.38;;;7.40;100.00
20003;BME280;10162;41.600;23.806;2023-03-04T08:01:15;95164.34;;;7.15;100.00
20003;BME280;10162;41.600;23.806;2023-03-04T08:03:43;95179.41;;;7.20;100.00
20003;BME280;10162;41.600;23.806;2023-03-04T08:06:12;95187.91;;;7.14;100.00
20003;BME280;10162;41.600;23.806;2023-03-04T08:08:40;95172.72;;;7.25;100.00
20003;BME280;10162;41.600;23.806;2023-03-04T08:11:07;95168.78;;;7.06;100.00
20003;BME280;10162;41.600;23.806;2023-03-04T08:13:34;95183.97;;;7.40;100.00
20003;BME280;10162;41.600;23.806;2023-03-04T08:16:00;95172.38;;;7.51;100.00
20003;BME280;10162;41.600;23.806;2023-03-04T08:18:39;95154.25;;;7.58;100.00
20003;BME280;10162;41.600;23.806;2023-03-04T08:21:08;95177.56;;;7.74;100.00
20003;BME280;10162;41.600;23.806;2023-03-04T08:23:34;95197.44;;;7.89;100.00
20003;BME280;10162;41.600;23.806;2023-03-04T08:26:05;95177.50;;;7.59;100.00
20003;BME280;10162;41.600;23.806;2023-03-04T08:31:58;95182.28;;;7.33;100.00
20003;BME280;10162;41.600;23.806;2023-03-04T08:34:26;95160.53;;;7.26;100.00
20003;BME280;10162;41.600;23.806;2023-03-04T08:36:53;95174.09;;;7.36;100.00
20003;BME280;10162;41.600;23.806;2023-03-04T08:39:31;95145.75;;;7.26;100.00
20003;BME280;10162;41.600;23.806;2023-03-04T08:42:00;95149.47;;;7.46;100.00
20003;BME280;10162;41.600;23.806;2023-03-04T08:44:25;95164.56;;;7.88;100.00
20003;BME280;10162;41.600;23.806;2023-03-04T08:46:51;95161.25;;;8.09;100.00
20003;BME280;10162;41.600;23.806;2023-03-04T08:49:22;95174.00;;;8.42;100.00
20003;BME280;10162;41.600;23.806;2023-03-04T08:51:48;95148.09;;;8.25;100.00
20003;BME280;10162;41.600;23.806;2023-03-04T08:54:14;95152.50;;;8.40;100.00
20003;BME280;10162;41.600;23.806;2023-03-04T08:56:40;95148.41;;;8.31;100.00
20003;BME280;10162;41.600;23.806;2023-03-04T08:59:06;95117.19;;;8.52;100.00
20003;BME280;10162;41.600;23.806;2023-03-04T09:01:32;95123.25;;;8.74;100.00
20003;BME280;10162;41.600;23.806;2023-03-04T09:03:58;95154.13;;;8.70;100.00
20003;BME280;10162;41.600;23.806;2023-03-04T09:06:25;95147.72;;;8.73;100.00
20003;BME280;10162;41.600;23.806;2023-03-04T09:08:59;95141.13;;;8.91;100.00
20003;BME280;10162;41.600;23.806;2023-03-04T09:11:25;95141.59;;;8.80;100.00
20003;BME280;10162;41.600;23.806;2023-03-04T09:13:51;95139.63;;;8.82;100.00
20003;BME280;10162;41.600;23.806;2023-03-04T09:16:17;95145.59;;;8.47;100.00
20003;BME280;10162;41.600;23.806;2023-03-04T09:18:44;95135.41;;;8.66;100.00
20003;BME280;10162;41.600;23.806;2023-03-04T09:21:12;95139.19;;;9.00;100.00
20003;BME280;10162;41.600;23.806;2023-03-04T09:23:37;95148.19;;;8.97;100.00
20003;BME280;10162;41.600;23.806;2023-03-04T09:26:15;95131.81;;;9.03;100.00
20003;BME280;10162;41.600;23.806;2023-03-04T09:28:50;95137.78;;;9.19;100.00
20003;BME280;10162;41.600;23.806;2023-03-04T09:31:16;95115.19;;;9.26;100.00
20003;BME280;10162;41.600;23.806;2023-03-04T09:33:41;95159.53;;;9.26;100.00
20003;BME280;10162;41.600;23.806;2023-03-04T09:36:10;95154.63;;;9.37;100.00
20003;BME280;10162;41.600;23.806;2023-03-04T09:38:39;95143.81;;;9.19;100.00
20003;BME280;10162;41.600;23.806;2023-03-04T09:41:08;95151.31;;;9.29;100.00
20003;BME280;10162;41.600;23.806;2023-03-04T09:43:37;95135.31;;;9.10;100.00
20003;BME280;10162;41.600;23.806;2023-03-04T09:46:12;95148.16;;;9.12;100.00
20003;BME280;10162;41.600;23.806;2023-03-04T09:48:54;95146.91;;;9.08;100.00
20003;BME280;10162;41.600;23.806;2023-03-04T09:54:08;95118.09;;;9.37;100.00
20003;BME280;10162;41.600;23.806;2023-03-04T09:56:37;95099.03;;;9.37;100.00
20003;BME280;10162;41.600;23.806;2023-03-04T10:01:54;95097.50;;;9.21;100.00
20003;BME280;10162;41.600;23.806;2023-03-04T10:04:35;95122.66;;;9.78;100.00
20003;BME280;10162;41.600;23.806;2023-03-04T10:07:09;95107.13;;;9.70;100.00
20003;BME280;10162;41.600;23.806;2023-03-04T10:10:04;95119.56;;;9.68;100.00
20003;BME280;10162;41.600;23.806;2023-03-04T10:12:33;95114.47;;;9.60;100.00
20003;BME280;10162;41.600;23.806;2023-03-04T10:15:06;95110.19;;;9.80;100.00
20003;BME280;10162;41.600;23.806;2023-03-04T10:17:46;95113.34;;;9.97;100.00
20003;BME280;10162;41.600;23.806;2023-03-04T10:20:49;95110.16;;;10.01;100.00
20003;BME280;10162;41.600;23.806;2023-03-04T10:23:22;95083.47;;;10.06;100.00
20003;BME280;10162;41.600;23.806;2023-03-04T10:25:49;95096.91;;;10.03;100.00
20003;BME280;10162;41.600;23.806;2023-03-04T10:28:26;95095.13;;;9.75;100.00
20003;BME280;10162;41.600;23.806;2023-03-04T10:33:40;95098.91;;;10.01;100.00
20003;BME280;10162;41.600;23.806;2023-03-04T10:38:59;95070.56;;;9.98;100.00
20003;BME280;10162;41.600;23.806;2023-03-04T10:41:29;95095.63;;;9.92;100.00
20003;BME280;10162;41.600;23.806;2023-03-04T10:46:30;95092.94;;;9.79;100.00
20003;BME280;10162;41.600;23.806;2023-03-04T10:48:58;95077.00;;;9.67;100.00
20003;BME280;10162;41.600;23.806;2023-03-04T10:51:26;95087.56;;;9.59;100.00
20003;BME280;10162;41.600;23.806;2023-03-04T10:53:57;95067.78;;;9.71;100.00
20003;BME280;10162;41.600;23.806;2023-03-04T11:02:19;95045.16;;;9.50;100.00
20003;BME280;10162;41.600;23.806;2023-03-04T11:07:21;95041.09;;;9.20;100.00
20003;BME280;10162;41.600;23.806;2023-03-04T11:09:50;95044.63;;;9.34;99.79
20003;BME280;10162;41.600;23.806;2023-03-04T11:12:31;95030.72;;;9.27;100.00
20003;BME280;10162;41.600;23.806;2023-03-04T11:14:57;95022.84;;;9.48;99.48
20003;BME280;10162;41.600;23.806;2023-03-04T11:17:30;95019.00;;;9.44;98.93
20003;BME280;10162;41.600;23.806;2023-03-04T11:25:51;95024.75;;;9.95;100.00
20003;BME280;10162;41.600;23.806;2023-03-04T11:31:35;95001.84;;;9.63;100.00
20003;BME280;10162;41.600;23.806;2023-03-04T11:34:15;95025.38;;;10.04;98.66
20003;BME280;10162;41.600;23.806;2023-03-04T11:37:38;94994.00;;;9.90;99.98
20003;BME280;10162;41.600;23.806;2023-03-04T11:45:44;95005.75;;;10.68;94.07
20003;BME280;10162;41.600;23.806;2023-03-04T11:56:44;94989.22;;;10.42;93.98
20003;BME280;10162;41.600;23.806;2023-03-04T12:02:23;94987.16;;;10.30;94.07
20003;BME280;10162;41.600;23.806;2023-03-04T12:05:26;94984.41;;;10.52;92.10
20003;BME280;10162;41.600;23.806;2023-03-04T12:11:01;94979.38;;;9.96;94.61
20003;BME280;10162;41.600;23.806;2023-03-04T12:13:57;94967.47;;;9.87;93.81
20003;BME280;10162;41.600;23.806;2023-03-04T12:22:42;94985.75;;;10.28;94.02
20003;BME280;10162;41.600;23.806;2023-03-04T12:28:08;94973.88;;;10.32;95.14
20003;BME280;10162;41.600;23.806;2023-03-04T12:36:27;94973.88;;;10.19;97.16
20003;BME280;10162;41.600;23.806;2023-03-04T12:44:19;94945.38;;;9.89;100.00
20003;BME280;10162;41.600;23.806;2023-03-04T12:49:54;94967.84;;;10.18;98.77
20003;BME280;10162;41.600;23.806;2023-03-04T12:55:15;94954.19;;;10.23;95.30
20003;BME280;10162;41.600;23.806;2023-03-04T12:57:43;94947.84;;;10.04;97.71
20003;BME280;10162;41.600;23.806;2023-03-04T13:03:23;94954.25;;;9.95;98.02
20003;BME280;10162;41.600;23.806;2023-03-04T13:14:02;94939.91;;;9.78;100.00
20003;BME280;10162;41.600;23.806;2023-03-04T13:16:30;94943.63;;;10.10;99.32
20003;BME280;10162;41.600;23.806;2023-03-04T13:19:00;94933.88;;;10.18;96.64
20003;BME280;10162;41.600;23.806;2023-03-04T13:21:29;94921.72;;;10.04;96.44
20003;BME280;10162;41.600;23.806;2023-03-04T13:23:57;94917.84;;;10.41;93.50
20003;BME280;10162;41.600;23.806;2023-03-04T13:26:32;94893.94;;;10.64;90.97
20003;BME280;10162;41.600;23.806;2023-03-04T13:32:07;94930.50;;;11.36;86.76
20003;BME280;10162;41.600;23.806;2023-03-04T13:34:54;94921.59;;;11.57;88.25
20003;BME280;10162;41.600;23.806;2023-03-04T13:37:30;94906.13;;;11.49;88.60
20003;BME280;10162;41.600;23.806;2023-03-04T13:43:24;94906.59;;;11.26;85.18
20003;BME280;10162;41.600;23.806;2023-03-04T13:45:50;94893.13;;;11.03;86.70
20003;BME280;10162;41.600;23.806;2023-03-04T13:48:24;94884.41;;;11.29;86.14
20003;BME280;10162;41.600;23.806;2023-03-04T13:50:55;94892.28;;;11.22;87.56
20003;BME280;10162;41.600;23.806;2023-03-04T13:53:40;94887.28;;;11.21;87.75
20003;BME280;10162;41.600;23.806;2023-03-04T14:02:10;94863.75;;;11.01;84.83
20003;BME280;10162;41.600;23.806;2023-03-04T14:04:43;94854.47;;;11.18;84.07
20003;BME280;10162;41.600;23.806;2023-03-04T14:07:35;94885.34;;;11.60;82.92
20003;BME280;10162;41.600;23.806;2023-03-04T14:13:25;94882.06;;;10.94;86.62
20003;BME280;10162;41.600;23.806;2023-03-04T14:15:57;94872.63;;;10.87;87.94
20003;BME280;10162;41.600;23.806;2023-03-04T14:21:44;94857.97;;;10.59;90.58
20003;BME280;10162;41.600;23.806;2023-03-04T14:24:16;94853.09;;;10.50;90.72
20003;BME280;10162;41.600;23.806;2023-03-04T14:26:43;94858.53;;;10.42;89.85
20003;BME280;10162;41.600;23.806;2023-03-04T14:33:06;94843.03;;;10.27;91.70
20003;BME280;10162;41.600;23.806;2023-03-04T14:35:34;94847.06;;;10.49;91.22
20003;BME280;10162;41.600;23.806;2023-03-04T14:38:06;94852.91;;;10.71;89.86
20003;BME280;10162;41.600;23.806;2023-03-04T14:40:55;94853.09;;;10.83;89.38
20003;BME280;10162;41.600;23.806;2023-03-04T14:43:25;94844.66;;;10.67;90.02
20003;BME280;10162;41.600;23.806;2023-03-04T14:45:53;94828.19;;;10.41;90.22
20003;BME280;10162;41.600;23.806;2023-03-04T14:48:30;94816.09;;;10.26;91.51
20003;BME280;10162;41.600;23.806;2023-03-04T14:50:59;94834.81;;;10.43;92.04
20003;BME280;10162;41.600;23.806;2023-03-04T14:53:28;94842.44;;;10.38;91.67
20003;BME280;10162;41.600;23.806;2023-03-04T14:56:01;94843.44;;;10.17;93.50
20003;BME280;10162;41.600;23.806;2023-03-04T15:05:33;94826.69;;;9.99;95.95
20003;BME280;10162;41.600;23.806;2023-03-04T15:08:20;94819.06;;;9.90;96.56
20003;BME280;10162;41.600;23.806;2023-03-04T15:10:58;94816.63;;;9.82;96.67
20003;BME280;10162;41.600;23.806;2023-03-04T15:13:48;94827.69;;;9.98;96.04
20003;BME280;10162;41.600;23.806;2023-03-04T15:16:18;94802.94;;;9.67;97.02
20003;BME280;10162;41.600;23.806;2023-03-04T15:25:13;94803.88;;;9.53;97.97
20003;BME280;10162;41.600;23.806;2023-03-04T15:27:45;94809.91;;;9.53;97.77
20003;BME280;10162;41.600;23.806;2023-03-04T15:33:05;94818.97;;;9.64;99.78
20003;BME280;10162;41.600;23.806;2023-03-04T15:35:32;94796.47;;;9.50;99.39
20003;BME280;10162;41.600;23.806;2023-03-04T15:37:59;94774.91;;;9.28;100.00
20003;BME280;10162;41.600;23.806;2023-03-04T15:40:43;94794.97;;;9.28;100.00
20003;BME280;10162;41.600;23.806;2023-03-04T15:43:19;94802.22;;;9.32;100.00
20003;BME280;10162;41.600;23.806;2023-03-04T15:45:46;94812.25;;;9.35;100.00
20003;BME280;10162;41.600;23.806;2023-03-04T15:48:15;94813.06;;;9.42;100.00
20003;BME280;10162;41.600;23.806;2023-03-04T15:50:51;94807.63;;;9.31;100.00
20003;BME280;10162;41.600;23.806;2023-03-04T15:55:58;94796.44;;;9.02;100.00
20003;BME280;10162;41.600;23.806;2023-03-04T15:59:05;94814.34;;;9.12;100.00
20003;BME280;10162;41.600;23.806;2023-03-04T16:01:34;94798.03;;;8.97;100.00
20003;BME280;10162;41.600;23.806;2023-03-04T16:04:00;94816.34;;;9.10;100.00
20003;BME280;10162;41.600;23.806;2023-03-04T16:06:29;94817.75;;;9.12;100.00
20003;BME280;10162;41.600;23.806;2023-03-04T16:09:04;94821.56;;;9.10;100.00
20003;BME280;10162;41.600;23.806;2023-03-04T16:11:36;94812.09;;;9.02;100.00
20003;BME280;10162;41.600;23.806;2023-03-04T16:14:14;94804.41;;;8.94;100.00
20003;BME280;10162;41.600;23.806;2023-03-04T16:16:40;94792.59;;;8.92;100.00
20003;BME280;10162;41.600;23.806;2023-03-04T16:19:10;94825.53;;;9.06;100.00
20003;BME280;10162;41.600;23.806;2023-03-04T16:21:36;94815.06;;;8.93;100.00
20003;BME280;10162;41.600;23.806;2023-03-04T16:24:03;94796.31;;;8.76;100.00
20003;BME280;10162;41.600;23.806;2023-03-04T16:26:32;94803.47;;;8.67;100.00
20003;BME280;10162;41.600;23.806;2023-03-04T16:29:22;94830.31;;;8.96;100.00
20003;BME280;10162;41.600;23.806;2023-03-04T16:31:49;94825.22;;;8.81;100.00
20003;BME280;10162;41.600;23.806;2023-03-04T16:34:18;94830.47;;;8.88;100.00
20003;BME280;10162;41.600;23.806;2023-03-04T16:36:45;94807.34;;;8.78;100.00
20003;BME280;10162;41.600;23.806;2023-03-04T16:39:19;94819.84;;;8.61;100.00
20003;BME280;10162;41.600;23.806;2023-03-04T16:41:48;94813.66;;;8.62;100.00
20003;BME280;10162;41.600;23.806;2023-03-04T16:44:14;94829.19;;;8.49;100.00
20003;BME280;10162;41.600;23.806;2023-03-04T16:46:40;94826.03;;;8.54;100.00
20003;BME280;10162;41.600;23.806;2023-03-04T16:52:24;94841.31;;;8.63;100.00
20003;BME280;10162;41.600;23.806;2023-03-04T16:54:51;94840.84;;;8.53;100.00
20003;BME280;10162;41.600;23.806;2023-03-04T16:57:17;94840.47;;;8.56;100.00
20003;BME280;10162;41.600;23.806;2023-03-04T17:00:04;94836.13;;;8.63;100.00
20003;BME280;10162;41.600;23.806;2023-03-04T17:02:31;94832.47;;;8.58;100.00
20003;BME280;10162;41.600;23.806;2023-03-04T17:04:57;94820.06;;;8.60;100.00
20003;BME280;10162;41.600;23.806;2023-03-04T17:07:23;94819.28;;;8.66;100.00
20003;BME280;10162;41.600;23.806;2023-03-04T17:10:16;94844.03;;;8.77;100.00
20003;BME280;10162;41.600;23.806;2023-03-04T17:12:45;94828.00;;;8.52;100.00
20003;BME280;10162;41.600;23.806;2023-03-04T17:15:12;94841.31;;;8.63;100.00
20003;BME280;10162;41.600;23.806;2023-03-04T17:17:42;94839.13;;;8.67;100.00
20003;BME280;10162;41.600;23.806;2023-03-04T17:20:25;94845.59;;;8.71;100.00
20003;BME280;10162;41.600;23.806;2023-03-04T17:22:52;94853.13;;;8.59;100.00
20003;BME280;10162;41.600;23.806;2023-03-04T17:25:18;94843.78;;;8.71;100.00
20003;BME280;10162;41.600;23.806;2023-03-04T17:27:45;94842.50;;;8.61;100.00
20003;BME280;10162;41.600;23.806;2023-03-04T17:33:31;94820.31;;;8.44;100.00
20003;BME280;10162;41.600;23.806;2023-03-04T17:36:04;94846.06;;;8.53;100.00
20003;BME280;10162;41.600;23.806;2023-03-04T17:39:40;94824.72;;;8.43;100.00
20003;BME280;10162;41.600;23.806;2023-03-04T17:41:41;94839.47;;;8.57;100.00
20003;BME280;10162;41.600;23.806;2023-03-04T17:44:12;94819.16;;;8.46;100.00
20003;BME280;10162;41.600;23.806;2023-03-04T17:53:39;94829.16;;;8.43;100.00
20003;BME280;10162;41.600;23.806;2023-03-04T17:56:10;94840.66;;;8.55;100.00
20003;BME280;10162;41.600;23.806;2023-03-04T17:59:10;94842.41;;;8.48;100.00
20003;BME280;10162;41.600;23.806;2023-03-04T18:01:38;94847.63;;;8.48;100.00
20003;BME280;10162;41.600;23.806;2023-03-04T18:04:07;94811.53;;;8.23;100.00
20003;BME280;10162;41.600;23.806;2023-03-04T18:06:34;94827.84;;;8.32;100.00
20003;BME280;10162;41.600;23.806;2023-03-04T18:13:01;94822.63;;;8.32;100.00
20003;BME280;10162;41.600;23.806;2023-03-04T18:15:27;94839.19;;;8.46;100.00
20003;BME280;10162;41.600;23.806;2023-03-04T18:17:53;94810.66;;;8.38;100.00
20003;BME280;10162;41.600;23.806;2023-03-04T18:23:29;94831.38;;;8.46;100.00
20003;BME280;10162;41.600;23.806;2023-03-04T18:25:59;94823.31;;;8.41;100.00
20003;BME280;10162;41.600;23.806;2023-03-04T18:31:58;94828.75;;;8.46;100.00
20003;BME280;10162;41.600;23.806;2023-03-04T18:34:33;94810.78;;;8.29;100.00
20003;BME280;10162;41.600;23.806;2023-03-04T18:36:59;94819.22;;;8.32;100.00
20003;BME280;10162;41.600;23.806;2023-03-04T18:39:46;94831.13;;;8.41;100.00
20003;BME280;10162;41.600;23.806;2023-03-04T18:42:15;94828.88;;;8.38;100.00
20003;BME280;10162;41.600;23.806;2023-03-04T18:44:43;94841.59;;;8.47;100.00
20003;BME280;10162;41.600;23.806;2023-03-04T18:47:22;94845.69;;;8.56;100.00
20003;BME280;10162;41.600;23.806;2023-03-04T18:53:00;94819.97;;;8.47;100.00
20003;BME280;10162;41.600;23.806;2023-03-04T18:55:34;94836.41;;;8.47;100.00
20003;BME280;10162;41.600;23.806;2023-03-04T19:01:14;94852.84;;;8.48;100.00
20003;BME280;10162;41.600;23.806;2023-03-04T19:03:51;94828.28;;;8.36;100.00
20003;BME280;10162;41.600;23.806;2023-03-04T19:06:24;94844.09;;;8.34;100.00
20003;BME280;10162;41.600;23.806;2023-03-04T19:09:09;94822.94;;;8.22;100.00
20003;BME280;10162;41.600;23.806;2023-03-04T19:11:38;94833.91;;;8.18;100.00
20003;BME280;10162;41.600;23.806;2023-03-04T19:14:47;94848.50;;;8.34;100.00
20003;BME280;10162;41.600;23.806;2023-03-04T19:17:13;94858.00;;;8.41;100.00
20003;BME280;10162;41.600;23.806;2023-03-04T19:26:41;94840.25;;;8.30;100.00
20003;BME280;10162;41.600;23.806;2023-03-04T19:30:04;94846.59;;;8.27;100.00